sensor_id;sensor_type;location;lat;lon;timestamp;pressure;altitude;pressure_sealevel;temperature;humidity
68712;BME280;55690;51.566;19.198;2023-06-05T00:00:43;102313.38;;;13.27;70.83
68712;BME280;55690;51.566;19.198;2023-06-05T00:04:49;102314.07;;;13.30;69.50
68712;BME280;55690;51.566;19.198;2023-06-05T00:08:56;102307.74;;;13.30;69.03
68712;BME280;55690;51.566;19.198;2023-06-05T00:13:01;102318.73;;;13.13;70.01
68712;BME280;55690;51.566;19.198;2023-06-05T00:17:08;102311.98;;;13.20;69.32
68712;BME280;55690;51.566;19.198;2023-06-05T00:21:14;102312.95;;;13.19;70.14
68712;BME280;55690;51.566;19.198;2023-06-05T00:25:21;102305.27;;;13.10;70.62
68712;BME280;55690;51.566;19.198;2023-06-05T00:29:26;102308.94;;;12.94;71.22
68712;BME280;55690;51.566;19.198;2023-06-05T00:33:32;102312.38;;;12.98;70.87
68712;BME280;55690;51.566;19.198;2023-06-05T00:37:39;102312.73;;;12.92;70.45
68712;BME280;55690;51.566;19.198;2023-06-05T00:41:45;102308.68;;;12.83;71.08
68712;BME280;55690;51.566;19.198;2023-06-05T00:45:56;102309.84;;;12.79;71.46
68712;BME280;55690;51.566;19.198;2023-06-05T00:49:59;102317.92;;;12.65;72.17
68712;BME280;55690;51.566;19.198;2023-06-05T00:54:03;102307.28;;;12.76;71.08
68712;BME280;55690;51.566;19.198;2023-06-05T00:58:10;102297.96;;;12.64;72.01
68712;BME280;55690;51.566;19.198;2023-06-05T01:02:15;102307.02;;;12.65;71.02
68712;BME280;55690;51.566;19.198;2023-06-05T01:06:22;102303.50;;;12.63;70.59
68712;BME280;55690;51.566;19.198;2023-06-05T01:10:28;102293.48;;;12.63;70.29
68712;BME280;55690;51.566;19.198;2023-06-05T01:14:35;102300.16;;;12.58;70.87
68712;BME280;55690;51.566;19.198;2023-06-05T01:18:46;102300.16;;;12.58;70.47
68712;BME280;55690;51.566;19.198;2023-06-05T01:22:49;102287.27;;;12.46;71.05
68712;BME280;55690;51.566;19.198;2023-06-05T01:27:07;102289.72;;;12.35;72.09
68712;BME280;55690;51.566;19.198;2023-06-05T01:31:11;102291.81;;;12.29;72.76
68712;BME280;55690;51.566;19.198;2023-06-05T01:35:22;102288.05;;;12.32;71.26
68712;BME280;55690;51.566;19.198;2023-06-05T01:39:33;102285.04;;;12.21;71.43
68712;BME280;55690;51.566;19.198;2023-06-05T01:43:36;102288.81;;;12.18;72.25
68712;BME280;55690;51.566;19.198;2023-06-05T01:47:38;102285.58;;;12.27;71.72
68712;BME280;55690;51.566;19.198;2023-06-05T01:51:40;102286.26;;;12.15;71.93
68712;BME280;55690;51.566;19.198;2023-06-05T01:55:41;102290.23;;;12.10;71.99
68712;BME280;55690;51.566;19.198;2023-06-05T01:59:43;102289.36;;;12.09;71.52
68712;BME280;55690;51.566;19.198;2023-06-05T02:03:49;102288.48;;;12.09;71.04
68712;BME280;55690;51.566;19.198;2023-06-05T02:07:55;102286.17;;;12.01;72.00
68712;BME280;55690;51.566;19.198;2023-06-05T02:12:01;102286.43;;;11.96;71.62
68712;BME280;55690;51.566;19.198;2023-06-05T02:16:10;102280.27;;;11.93;72.28
68712;BME280;55690;51.566;19.198;2023-06-05T02:20:14;102283.33;;;11.87;72.52
68712;BME280;55690;51.566;19.198;2023-06-05T02:24:19;102293.26;;;11.88;72.00
68712;BME280;55690;51.566;19.198;2023-06-05T02:28:25;102284.29;;;11.86;72.36
68712;BME280;55690;51.566;19.198;2023-06-05T02:32:31;102292.88;;;11.78;72.60
68712;BME280;55690;51.566;19.198;2023-06-05T02:36:38;102293.53;;;11.66;73.87
68712;BME280;55690;51.566;19.198;2023-06-05T02:40:44;102290.08;;;11.62;73.43
68712;BME280;55690;51.566;19.198;2023-06-05T02:44:50;102285.44;;;11.64;73.25
68712;BME280;55690;51.566;19.198;2023-06-05T02:48:56;102278.87;;;11.69;73.35
68712;BME280;55690;51.566;19.198;2023-06-05T02:53:02;102293.37;;;11.52;74.72
68712;BME280;55690;51.566;19.198;2023-06-05T02:57:09;102288.33;;;11.44;74.93
68712;BME280;55690;51.566;19.198;2023-06-05T03:01:15;102289.21;;;11.45;75.04
68712;BME280;55690;51.566;19.198;2023-06-05T03:05:21;102295.78;;;11.41;75.48
68712;BME280;55690;51.566;19.198;2023-06-05T03:09:27;102298.10;;;11.48;75.72
68712;BME280;55690;51.566;19.198;2023-06-05T03:13:33;102288.25;;;11.46;75.91
68712;BME280;55690;51.566;19.198;2023-06-05T03:17:39;102295.05;;;11.54;76.15
68712;BME280;55690;51.566;19.198;2023-06-05T03:21:46;102286.23;;;11.66;75.58
68712;BME280;55690;51.566;19.198;2023-06-05T03:25:52;102278.92;;;11.84;75.18
68712;BME280;55690;51.566;19.198;2023-06-05T03:29:58;102277.84;;;12.04;74.93
68712;BME280;55690;51.566;19.198;2023-06-05T03:34:04;102260.79;;;12.01;75.62
68712;BME280;55690;51.566;19.198;2023-06-05T03:38:10;102284.41;;;12.16;75.65
68712;BME280;55690;51.566;19.198;2023-06-05T03:42:16;102285.84;;;12.23;76.16
68712;BME280;55690;51.566;19.198;2023-06-05T03:46:23;102277.16;;;12.48;74.59
68712;BME280;55690;51.566;19.198;2023-06-05T03:50:29;102280.23;;;12.42;73.81
68712;BME280;55690;51.566;19.198;2023-06-05T03:54:35;102274.58;;;12.60;74.64
68712;BME280;55690;51.566;19.198;2023-06-05T03:58:41;102280.99;;;12.75;73.99
68712;BME280;55690;51.566;19.198;2023-06-05T04:02:47;102272.98;;;12.72;74.37
68712;BME280;55690;51.566;19.198;2023-06-05T04:06:57;102264.88;;;12.86;74.42
68712;BME280;55690;51.566;19.198;2023-06-05T04:11:00;102280.55;;;12.83;77.01
68712;BME280;55690;51.566;19.198;2023-06-05T04:15:07;102286.61;;;12.88;79.81
68712;BME280;55690;51.566;19.198;2023-06-05T04:19:12;102280.41;;;13.16;77.53
68712;BME280;55690;51.566;19.198;2023-06-05T04:23:18;102279.40;;;13.47;76.91
68712;BME280;55690;51.566;19.198;2023-06-05T04:27:24;102271.76;;;13.82;76.19
68712;BME280;55690;51.566;19.198;2023-06-05T04:31:31;102279.92;;;14.10;75.29
68712;BME280;55690;51.566;19.198;2023-06-05T04:35:37;102284.86;;;14.32;74.69
68712;BME280;55690;51.566;19.198;2023-06-05T04:39:43;102283.57;;;14.66;71.52
68712;BME280;55690;51.566;19.198;2023-06-05T04:43:49;102279.06;;;14.92;69.51
68712;BME280;55690;51.566;19.198;2023-06-05T04:47:55;102271.47;;;15.10;70.40
68712;BME280;55690;51.566;19.198;2023-06-05T04:52:01;102267.92;;;15.47;71.29
68712;BME280;55690;51.566;19.198;2023-06-05T04:56:08;102253.59;;;15.69;69.11
68712;BME280;55690;51.566;19.198;2023-06-05T05:00:17;102264.52;;;16.07;69.18
68712;BME280;55690;51.566;19.198;2023-06-05T05:04:20;102265.70;;;16.28;68.00
68712;BME280;55690;51.566;19.198;2023-06-05T05:08:26;102266.70;;;16.64;68.84
68712;BME280;55690;51.566;19.198;2023-06-05T05:12:32;102270.80;;;16.82;68.41
68712;BME280;55690;51.566;19.198;2023-06-05T05:16:38;102271.01;;;17.03;69.22
68712;BME280;55690;51.566;19.198;2023-06-05T05:20:45;102271.25;;;17.35;67.55
68712;BME280;55690;51.566;19.198;2023-06-05T05:24:51;102265.39;;;17.75;66.96
68712;BME280;55690;51.566;19.198;2023-06-05T05:28:57;102277.89;;;18.01;66.23
68712;BME280;55690;51.566;19.198;2023-06-05T05:33:03;102273.88;;;18.27;65.95
68712;BME280;55690;51.566;19.198;2023-06-05T05:37:09;102280.63;;;18.46;65.43
68712;BME280;55690;51.566;19.198;2023-06-05T05:41:15;102285.43;;;18.87;65.29
68712;BME280;55690;51.566;19.198;2023-06-05T05:45:22;102277.43;;;19.16;64.57
68712;BME280;55690;51.566;19.198;2023-06-05T05:49:28;102282.58;;;19.41;64.01
68712;BME280;55690;51.566;19.198;2023-06-05T05:53:34;102275.23;;;19.93;62.98
68712;BME280;55690;51.566;19.198;2023-06-05T05:57:40;102277.58;;;19.98;61.85
68712;BME280;55690;51.566;19.198;2023-06-05T06:01:46;102279.20;;;20.71;61.82
68712;BME280;55690;51.566;19.198;2023-06-05T06:05:53;102280.63;;;20.65;60.83
68712;BME280;55690;51.566;19.198;2023-06-05T06:09:59;102281.66;;;20.64;60.86
68712;BME280;55690;51.566;19.198;2023-06-05T06:14:05;102285.01;;;20.87;61.51
68712;BME280;55690;51.566;19.198;2023-06-05T06:18:11;102279.82;;;21.13;60.09
68712;BME280;55690;51.566;19.198;2023-06-05T06:22:17;102281.57;;;21.52;58.87
68712;BME280;55690;51.566;19.198;2023-06-05T06:26:24;102285.12;;;22.38;58.52
68712;BME280;55690;51.566;19.198;2023-06-05T06:30:29;102288.30;;;22.43;56.54
68712;BME280;55690;51.566;19.198;2023-06-05T06:34:36;102291.93;;;23.16;55.96
68712;BME280;55690;51.566;19.198;2023-06-05T06:38:42;102298.18;;;23.18;53.44
68712;BME280;55690;51.566;19.198;2023-06-05T06:42:49;102292.07;;;23.68;54.34
68712;BME280;55690;51.566;19.198;2023-06-05T06:46:54;102285.22;;;24.06;51.18
68712;BME280;55690;51.566;19.198;2023-06-05T06:51:00;102285.53;;;24.63;51.10
68712;BME280;55690;51.566;19.198;2023-06-05T06:55:07;102285.78;;;24.44;51.51
68712;BME280;55690;51.566;19.198;2023-06-05T06:59:14;102286.06;;;24.67;51.13
68712;BME280;55690;51.566;19.198;2023-06-05T07:03:19;102282.74;;;24.63;49.95
68712;BME280;55690;51.566;19.198;2023-06-05T07:07:25;102280.73;;;24.90;49.55
68712;BME280;55690;51.566;19.198;2023-06-05T07:11:31;102285.68;;;25.12;48.47
68712;BME280;55690;51.566;19.198;2023-06-05T07:15:37;102282.21;;;24.60;46.42
68712;BME280;55690;51.566;19.198;2023-06-05T07:19:43;102282.20;;;25.26;47.34
68712;BME280;55690;51.566;19.198;2023-06-05T07:23:50;102283.92;;;25.19;46.71
68712;BME280;55690;51.566;19.198;2023-06-05T07:27:56;102288.80;;;25.58;47.72
68712;BME280;55690;51.566;19.198;2023-06-05T07:32:02;102277.70;;;25.90;46.98
68712;BME280;55690;51.566;19.198;2023-06-05T07:36:08;102280.93;;;26.10;47.18
68712;BME280;55690;51.566;19.198;2023-06-05T07:40:14;102278.63;;;26.30;45.96
68712;BME280;55690;51.566;19.198;2023-06-05T07:44:21;102280.29;;;25.59;46.28
68712;BME280;55690;51.566;19.198;2023-06-05T07:48:26;102285.53;;;25.87;46.43
68712;BME280;55690;51.566;19.198;2023-06-05T07:52:33;102278.74;;;25.81;47.31
68712;BME280;55690;51.566;19.198;2023-06-05T07:56:39;102276.20;;;26.35;46.98
68712;BME280;55690;51.566;19.198;2023-06-05T08:00:45;102279.84;;;26.27;47.71
68712;BME280;55690;51.566;19.198;2023-06-05T08:04:51;102282.12;;;26.24;48.08
68712;BME280;55690;51.566;19.198;2023-06-05T08:09:02;102275.15;;;26.28;47.14
68712;BME280;55690;51.566;19.198;2023-06-05T08:13:04;102275.69;;;26.70;47.39
68712;BME280;55690;51.566;19.198;2023-06-05T08:17:10;102266.89;;;26.50;45.80
68712;BME280;55690;51.566;19.198;2023-06-05T08:21:16;102274.63;;;26.24;44.74
68712;BME280;55690;51.566;19.198;2023-06-05T08:25:23;102267.11;;;26.80;46.94
68712;BME280;55690;51.566;19.198;2023-06-05T08:29:28;102268.73;;;26.66;46.60
68712;BME280;55690;51.566;19.198;2023-06-05T08:33:35;102276.19;;;26.74;45.43
68712;BME280;55690;51.566;19.198;2023-06-05T08:37:40;102276.33;;;26.80;46.01
68712;BME280;55690;51.566;19.198;2023-06-05T08:41:50;102272.90;;;26.70;46.01
68712;BME280;55690;51.566;19.198;2023-06-05T08:45:55;102276.39;;;26.95;45.83
68712;BME280;55690;51.566;19.198;2023-06-05T08:50:03;102276.77;;;26.61;45.03
68712;BME280;55690;51.566;19.198;2023-06-05T08:54:05;102270.78;;;26.41;44.68
68712;BME280;55690;51.566;19.198;2023-06-05T08:58:14;102271.01;;;26.94;45.88
68712;BME280;55690;51.566;19.198;2023-06-05T09:02:18;102264.22;;;26.65;45.69
68712;BME280;55690;51.566;19.198;2023-06-05T09:06:23;102261.89;;;27.08;44.43
68712;BME280;55690;51.566;19.198;2023-06-05T09:10:30;102257.99;;;27.17;44.44
68712;BME280;55690;51.566;19.198;2023-06-05T09:14:36;102245.78;;;27.18;43.28
68712;BME280;55690;51.566;19.198;2023-06-05T09:18:52;102254.27;;;26.94;45.13
68712;BME280;55690;51.566;19.198;2023-06-05T09:22:54;102248.08;;;27.14;44.72
68712;BME280;55690;51.566;19.198;2023-06-05T09:27:04;102255.31;;;27.01;44.97
68712;BME280;55690;51.566;19.198;2023-06-05T09:31:09;102254.27;;;26.94;43.79
68712;BME280;55690;51.566;19.198;2023-06-05T09:35:16;102254.99;;;26.96;43.68
68712;BME280;55690;51.566;19.198;2023-06-05T09:39:18;102248.50;;;27.03;43.88
68712;BME280;55690;51.566;19.198;2023-06-05T09:43:22;102240.41;;;27.54;42.93
68712;BME280;55690;51.566;19.198;2023-06-05T09:47:26;102231.63;;;27.65;43.72
68712;BME280;55690;51.566;19.198;2023-06-05T09:51:31;102230.56;;;27.81;43.94
68712;BME280;55690;51.566;19.198;2023-06-05T09:55:37;102231.05;;;27.70;42.80
68712;BME280;55690;51.566;19.198;2023-06-05T09:59:50;102238.11;;;27.58;42.24
68712;BME280;55690;51.566;19.198;2023-06-05T10:04:02;102225.01;;;28.10;42.92
68712;BME280;55690;51.566;19.198;2023-06-05T10:08:06;102247.01;;;27.61;42.61
68712;BME280;55690;51.566;19.198;2023-06-05T10:12:08;102221.45;;;28.02;41.83
68712;BME280;55690;51.566;19.198;2023-06-05T10:16:10;102219.32;;;28.04;42.75
68712;BME280;55690;51.566;19.198;2023-06-05T10:20:14;102216.79;;;27.79;41.81
68712;BME280;55690;51.566;19.198;2023-06-05T10:24:35;102206.34;;;28.62;42.13
68712;BME280;55690;51.566;19.198;2023-06-05T10:28:49;102203.99;;;28.44;42.11
68712;BME280;55690;51.566;19.198;2023-06-05T10:41:17;102203.70;;;28.54;41.95
68712;BME280;55690;51.566;19.198;2023-06-05T10:45:31;102200.07;;;28.09;42.03
68712;BME280;55690;51.566;19.198;2023-06-05T10:49:36;102182.52;;;28.30;41.11
68712;BME280;55690;51.566;19.198;2023-06-05T10:53:46;102192.23;;;28.48;41.71
68712;BME280;55690;51.566;19.198;2023-06-05T11:06:20;102185.90;;;27.81;41.82
68712;BME280;55690;51.566;19.198;2023-06-05T11:10:22;102185.92;;;28.97;41.63
68712;BME280;55690;51.566;19.198;2023-06-05T11:14:42;102178.11;;;29.14;40.42
68712;BME280;55690;51.566;19.198;2023-06-05T11:18:33;102176.91;;;29.44;40.04
68712;BME280;55690;51.566;19.198;2023-06-05T11:26:47;102180.82;;;29.29;40.93
68712;BME280;55690;51.566;19.198;2023-06-05T11:30:49;102167.51;;;29.31;41.00
68712;BME280;55690;51.566;19.198;2023-06-05T11:34:51;102175.46;;;29.55;40.83
68712;BME280;55690;51.566;19.198;2023-06-05T11:38:57;102170.83;;;28.77;40.02
68712;BME280;55690;51.566;19.198;2023-06-05T11:43:07;102160.70;;;29.68;40.41
68712;BME280;55690;51.566;19.198;2023-06-05T11:51:21;102161.05;;;28.30;40.84
68712;BME280;55690;51.566;19.198;2023-06-05T11:55:22;102160.77;;;28.10;41.72
68712;BME280;55690;51.566;19.198;2023-06-05T11:59:37;102163.36;;;28.27;41.12
68712;BME280;55690;51.566;19.198;2023-06-05T12:03:39;102157.52;;;29.22;41.67
68712;BME280;55690;51.566;19.198;2023-06-05T12:07:40;102159.99;;;29.10;42.06
68712;BME280;55690;51.566;19.198;2023-06-05T12:11:44;102144.30;;;28.88;40.49
68712;BME280;55690;51.566;19.198;2023-06-05T12:19:59;102131.38;;;29.64;39.68
68712;BME280;55690;51.566;19.198;2023-06-05T12:24:06;102135.25;;;29.63;40.67
68712;BME280;55690;51.566;19.198;2023-06-05T12:32:25;102131.72;;;28.98;40.43
68712;BME280;55690;51.566;19.198;2023-06-05T12:36:27;102122.50;;;29.04;40.41
68712;BME280;55690;51.566;19.198;2023-06-05T12:40:30;102128.62;;;29.14;41.14
68712;BME280;55690;51.566;19.198;2023-06-05T12:44:31;102127.35;;;29.17;41.53
68712;BME280;55690;51.566;19.198;2023-06-05T12:48:32;102127.76;;;29.14;40.88
68712;BME280;55690;51.566;19.198;2023-06-05T12:52:34;102119.36;;;29.14;40.99
68712;BME280;55690;51.566;19.198;2023-06-05T12:56:36;102112.96;;;29.20;40.77
68712;BME280;55690;51.566;19.198;2023-06-05T13:00:37;102103.30;;;29.85;40.06
68712;BME280;55690;51.566;19.198;2023-06-05T13:04:39;102104.00;;;29.59;40.12
68712;BME280;55690;51.566;19.198;2023-06-05T13:08:41;102107.36;;;29.20;40.10
68712;BME280;55690;51.566;19.198;2023-06-05T13:12:43;102094.23;;;29.49;40.19
68712;BME280;55690;51.566;19.198;2023-06-05T13:16:45;102086.31;;;28.54;40.18
68712;BME280;55690;51.566;19.198;2023-06-05T13:20:46;102089.02;;;28.68;40.05
68712;BME280;55690;51.566;19.198;2023-06-05T13:24:51;102090.02;;;28.39;41.06
68712;BME280;55690;51.566;19.198;2023-06-05T13:28:57;102078.92;;;28.89;40.83
68712;BME280;55690;51.566;19.198;2023-06-05T13:33:04;102079.90;;;28.81;41.09
68712;BME280;55690;51.566;19.198;2023-06-05T13:37:10;102079.59;;;29.19;41.93
68712;BME280;55690;51.566;19.198;2023-06-05T13:41:16;102078.47;;;28.85;41.66
68712;BME280;55690;51.566;19.198;2023-06-05T13:45:22;102083.05;;;28.93;41.92
68712;BME280;55690;51.566;19.198;2023-06-05T13:49:29;102078.40;;;28.57;41.03
68712;BME280;55690;51.566;19.198;2023-06-05T13:53:34;102077.31;;;28.37;41.32
68712;BME280;55690;51.566;19.198;2023-06-05T13:57:40;102054.73;;;28.81;41.13
68712;BME280;55690;51.566;19.198;2023-06-05T14:01:47;102057.43;;;28.89;40.68
68712;BME280;55690;51.566;19.198;2023-06-05T14:05:53;102061.16;;;28.54;41.39
68712;BME280;55690;51.566;19.198;2023-06-05T14:09:59;102054.62;;;28.25;41.74
68712;BME280;55690;51.566;19.198;2023-06-05T14:14:05;102048.62;;;28.28;41.65
68712;BME280;55690;51.566;19.198;2023-06-05T14:18:11;102041.30;;;28.70;41.13
68712;BME280;55690;51.566;19.198;2023-06-05T14:22:17;102037.90;;;28.74;42.04
68712;BME280;55690;51.566;19.198;2023-06-05T14:26:24;102041.52;;;28.47;40.73
68712;BME280;55690;51.566;19.198;2023-06-05T14:30:30;102036.21;;;28.52;40.99
68712;BME280;55690;51.566;19.198;2023-06-05T14:34:36;102031.88;;;28.28;40.77
68712;BME280;55690;51.566;19.198;2023-06-05T14:38:42;102025.57;;;27.69;41.28
68712;BME280;55690;51.566;19.198;2023-06-05T14:42:49;102026.13;;;28.15;41.75
68712;BME280;55690;51.566;19.198;2023-06-05T14:46:55;102016.92;;;28.00;41.18
68712;BME280;55690;51.566;19.198;2023-06-05T14:51:00;102035.24;;;27.88;41.83
68712;BME280;55690;51.566;19.198;2023-06-05T14:55:08;102021.32;;;27.43;41.73
68712;BME280;55690;51.566;19.198;2023-06-05T14:59:13;102025.00;;;27.59;42.26
68712;BME280;55690;51.566;19.198;2023-06-05T15:03:19;102030.07;;;27.40;42.22
68712;BME280;55690;51.566;19.198;2023-06-05T15:07:31;102020.48;;;27.72;42.42
68712;BME280;55690;51.566;19.198;2023-06-05T15:11:32;102012.27;;;27.56;41.89
68712;BME280;55690;51.566;19.198;2023-06-05T15:15:37;102015.66;;;27.66;42.30
68712;BME280;55690;51.566;19.198;2023-06-05T15:19:44;102011.65;;;27.90;42.04
68712;BME280;55690;51.566;19.198;2023-06-05T15:23:50;102018.04;;;27.55;42.04
68712;BME280;55690;51.566;19.198;2023-06-05T15:27:56;102018.34;;;27.30;42.69
68712;BME280;55690;51.566;19.198;2023-06-05T15:32:03;102004.00;;;27.33;42.21
68712;BME280;55690;51.566;19.198;2023-06-05T15:36:08;101985.38;;;27.19;42.09
68712;BME280;55690;51.566;19.198;2023-06-05T15:40:15;102006.71;;;27.12;43.07
68712;BME280;55690;51.566;19.198;2023-06-05T15:44:20;102010.88;;;26.93;43.12
68712;BME280;55690;51.566;19.198;2023-06-05T15:48:27;102005.42;;;26.85;43.26
68712;BME280;55690;51.566;19.198;2023-06-05T15:52:35;102002.97;;;26.67;43.18
68712;BME280;55690;51.566;19.198;2023-06-05T15:56:39;101997.28;;;26.61;43.44
68712;BME280;55690;51.566;19.198;2023-06-05T16:00:45;102007.31;;;26.24;44.22
68712;BME280;55690;51.566;19.198;2023-06-05T16:04:51;101998.28;;;26.45;43.80
68712;BME280;55690;51.566;19.198;2023-06-05T16:08:57;102000.55;;;26.18;43.74
68712;BME280;55690;51.566;19.198;2023-06-05T16:13:04;101997.20;;;26.00;44.30
68712;BME280;55690;51.566;19.198;2023-06-05T16:17:10;101995.66;;;26.21;44.71
68712;BME280;55690;51.566;19.198;2023-06-05T16:21:16;102002.58;;;26.02;44.70
68712;BME280;55690;51.566;19.198;2023-06-05T16:25:24;101998.23;;;25.76;44.40
68712;BME280;55690;51.566;19.198;2023-06-05T16:29:29;102000.33;;;25.74;44.65
68712;BME280;55690;51.566;19.198;2023-06-05T16:33:36;101996.27;;;25.85;44.54
68712;BME280;55690;51.566;19.198;2023-06-05T16:37:41;101996.85;;;25.33;45.14
68712;BME280;55690;51.566;19.198;2023-06-05T16:41:47;102002.05;;;25.36;45.44
68712;BME280;55690;51.566;19.198;2023-06-05T16:45:53;102001.87;;;25.38;45.29
68712;BME280;55690;51.566;19.198;2023-06-05T16:49:59;101997.71;;;25.34;45.18
68712;BME280;55690;51.566;19.198;2023-06-05T16:54:05;101997.54;;;25.35;45.34
68712;BME280;55690;51.566;19.198;2023-06-05T16:58:11;101997.23;;;25.22;45.71
68712;BME280;55690;51.566;19.198;2023-06-05T17:02:17;101993.60;;;25.13;46.01
68712;BME280;55690;51.566;19.198;2023-06-05T17:06:24;101982.18;;;25.08;45.91
68712;BME280;55690;51.566;19.198;2023-06-05T17:10:30;101989.11;;;25.12;45.98
68712;BME280;55690;51.566;19.198;2023-06-05T17:14:36;101985.84;;;25.01;46.36
68712;BME280;55690;51.566;19.198;2023-06-05T17:18:42;101988.09;;;25.05;46.00
68712;BME280;55690;51.566;19.198;2023-06-05T17:22:48;101994.52;;;24.90;46.53
68712;BME280;55690;51.566;19.198;2023-06-05T17:26:57;101980.29;;;24.76;46.99
68712;BME280;55690;51.566;19.198;2023-06-05T17:31:03;101987.98;;;24.58;47.30
68712;BME280;55690;51.566;19.198;2023-06-05T17:35:10;101981.85;;;24.71;47.19
68712;BME280;55690;51.566;19.198;2023-06-05T17:39:16;101983.45;;;24.65;47.29
68712;BME280;55690;51.566;19.198;2023-06-05T17:43:22;101981.02;;;24.62;47.56
68712;BME280;55690;51.566;19.198;2023-06-05T17:47:28;101982.95;;;24.45;47.88
68712;BME280;55690;51.566;19.198;2023-06-05T17:51:34;101984.32;;;24.33;47.81
68712;BME280;55690;51.566;19.198;2023-06-05T17:55:40;101987.13;;;24.25;48.53
68712;BME280;55690;51.566;19.198;2023-06-05T17:59:46;101984.66;;;24.22;48.78
68712;BME280;55690;51.566;19.198;2023-06-05T18:03:53;101987.54;;;23.88;48.80
68712;BME280;55690;51.566;19.198;2023-06-05T18:07:59;101991.03;;;23.98;49.20
68712;BME280;55690;51.566;19.198;2023-06-05T18:12:06;101992.41;;;23.94;49.46
68712;BME280;55690;51.566;19.198;2023-06-05T18:16:11;101991.89;;;23.82;50.23
68712;BME280;55690;51.566;19.198;2023-06-05T18:20:17;102000.18;;;23.74;50.17
68712;BME280;55690;51.566;19.198;2023-06-05T18:24:24;101995.88;;;23.38;50.66
68712;BME280;55690;51.566;19.198;2023-06-05T18:28:30;102005.56;;;23.08;50.80
68712;BME280;55690;51.566;19.198;2023-06-05T18:32:36;101998.06;;;22.74;51.47
68712;BME280;55690;51.566;19.198;2023-06-05T18:36:42;101999.41;;;22.88;50.63
68712;BME280;55690;51.566;19.198;2023-06-05T18:40:48;102002.66;;;22.83;50.79
68712;BME280;55690;51.566;19.198;2023-06-05T18:44:54;102001.15;;;22.89;50.73
68712;BME280;55690;51.566;19.198;2023-06-05T18:49:01;102010.11;;;22.83;51.13
68712;BME280;55690;51.566;19.198;2023-06-05T18:53:07;102019.68;;;22.71;53.33
68712;BME280;55690;51.566;19.198;2023-06-05T18:57:13;102019.05;;;22.59;53.82
68712;BME280;55690;51.566;19.198;2023-06-05T19:01:19;102022.81;;;22.14;54.73
68712;BME280;55690;51.566;19.198;2023-06-05T19:05:26;102025.30;;;21.90;54.27
68712;BME280;55690;51.566;19.198;2023-06-05T19:09:31;102030.48;;;22.20;53.84
68712;BME280;55690;51.566;19.198;2023-06-05T19:13:37;102032.24;;;22.04;54.26
68712;BME280;55690;51.566;19.198;2023-06-05T19:17:44;102036.77;;;21.95;54.65
68712;BME280;55690;51.566;19.198;2023-06-05T19:21:50;102030.43;;;21.85;54.08
68712;BME280;55690;51.566;19.198;2023-06-05T19:25:56;102038.31;;;21.80;53.74
68712;BME280;55690;51.566;19.198;2023-06-05T19:30:03;102054.73;;;21.64;55.59
68712;BME280;55690;51.566;19.198;2023-06-05T19:34:08;102046.37;;;21.46;55.78
68712;BME280;55690;51.566;19.198;2023-06-05T19:38:15;102042.36;;;21.31;56.72
68712;BME280;55690;51.566;19.198;2023-06-05T19:42:20;102023.53;;;21.07;57.53
68712;BME280;55690;51.566;19.198;2023-06-05T19:46:27;102038.78;;;21.11;57.65
68712;BME280;55690;51.566;19.198;2023-06-05T19:50:33;102039.83;;;21.00;57.11
68712;BME280;55690;51.566;19.198;2023-06-05T19:54:39;102048.13;;;20.90;57.88
68712;BME280;55690;51.566;19.198;2023-06-05T19:58:45;102043.49;;;20.81;57.68
68712;BME280;55690;51.566;19.198;2023-06-05T20:02:51;102047.33;;;20.61;59.73
68712;BME280;55690;51.566;19.198;2023-06-05T20:06:58;102045.00;;;20.56;59.15
68712;BME280;55690;51.566;19.198;2023-06-05T20:11:04;102048.78;;;20.46;59.27
68712;BME280;55690;51.566;19.198;2023-06-05T20:15:10;102049.21;;;20.32;59.92
68712;BME280;55690;51.566;19.198;2023-06-05T20:19:16;102050.07;;;20.22;60.25
68712;BME280;55690;51.566;19.198;2023-06-05T20:23:22;102045.13;;;20.16;59.93
68712;BME280;55690;51.566;19.198;2023-06-05T20:27:28;102056.58;;;20.12;60.94
68712;BME280;55690;51.566;19.198;2023-06-05T20:31:35;102048.02;;;20.05;61.33
68712;BME280;55690;51.566;19.198;2023-06-05T20:35:43;102049.88;;;19.95;61.65
68712;BME280;55690;51.566;19.198;2023-06-05T20:39:47;102047.55;;;19.81;62.11
68712;BME280;55690;51.566;19.198;2023-06-05T20:43:53;102056.48;;;19.64;62.15
68712;BME280;55690;51.566;19.198;2023-06-05T20:48:00;102059.38;;;19.62;62.32
68712;BME280;55690;51.566;19.198;2023-06-05T20:52:11;102051.04;;;19.43;63.09
68712;BME280;55690;51.566;19.198;2023-06-05T20:56:13;102062.05;;;19.43;62.51
68712;BME280;55690;51.566;19.198;2023-06-05T21:00:18;102056.09;;;19.38;62.15
68712;BME280;55690;51.566;19.198;2023-06-05T21:04:24;102054.76;;;19.32;62.51
68712;BME280;55690;51.566;19.198;2023-06-05T21:08:30;102054.65;;;19.13;63.17
68712;BME280;55690;51.566;19.198;2023-06-05T21:12:36;102051.30;;;19.09;62.71
68712;BME280;55690;51.566;19.198;2023-06-05T21:16:42;102057.45;;;18.92;64.18
68712;BME280;55690;51.566;19.198;2023-06-05T21:20:48;102054.90;;;18.79;63.86
68712;BME280;55690;51.566;19.198;2023-06-05T21:24:55;102059.93;;;18.74;64.68
68712;BME280;55690;51.566;19.198;2023-06-05T21:29:01;102061.73;;;18.64;65.51
68712;BME280;55690;51.566;19.198;2023-06-05T21:33:07;102064.22;;;18.14;64.90
68712;BME280;55690;51.566;19.198;2023-06-05T21:37:15;102061.46;;;18.14;65.52
68712;BME280;55690;51.566;19.198;2023-06-05T21:41:19;102070.84;;;18.12;66.45